createdAt,value
2023-03-27T00:01:31.641Z,89.86
2023-03-27T00:06:34.553Z,91.56
2023-03-27T00:11:35.913Z,91.80
2023-03-27T00:16:37.383Z,93.68
2023-03-27T00:21:38.820Z,92.26
2023-03-27T00:26:40.612Z,91.40
2023-03-27T00:31:42.280Z,92.97
2023-03-27T00:36:45.308Z,95.65
2023-03-27T00:41:47.383Z,97.80
2023-03-27T00:46:49.541Z,96.44
2023-03-27T00:51:53.067Z,96.47
2023-03-27T00:56:55.499Z,95.95
2023-03-27T01:01:57.774Z,97.57
2023-03-27T01:07:00.181Z,97.44
2023-03-27T01:12:06.821Z,97.57
2023-03-27T01:17:14.078Z,95.74
2023-03-27T01:22:33.821Z,96.99
2023-03-27T01:27:58.521Z,97.28
2023-03-27T01:32:59.889Z,100.00
2023-03-27T01:38:07.430Z,100.00
2023-03-27T01:43:17.189Z,99.75
2023-03-27T01:48:24.191Z,100.00
2023-03-27T01:53:34.803Z,100.00
2023-03-27T01:58:40.740Z,100.00
2023-03-27T02:03:45.156Z,100.00
2023-03-27T02:08:58.644Z,100.00
2023-03-27T02:14:01.480Z,100.00
2023-03-27T02:19:04.934Z,100.00
2023-03-27T02:24:06.416Z,100.00
2023-03-27T02:29:26.703Z,100.00
2023-03-27T02:34:49.246Z,100.00
2023-03-27T02:39:57.845Z,100.00
2023-03-27T02:45:04.708Z,100.00
2023-03-27T02:50:10.780Z,100.00
2023-03-27T02:55:17.575Z,100.00
2023-03-27T03:00:25.610Z,100.00
2023-03-27T03:05:27.576Z,100.00
2023-03-27T03:10:29.052Z,100.00
2023-03-27T03:15:30.364Z,100.00
2023-03-27T03:20:31.759Z,100.00
2023-03-27T03:25:33.097Z,100.00
2023-03-27T03:30:35.092Z,100.00
2023-03-27T03:35:36.511Z,100.00
2023-03-27T03:40:37.887Z,100.00
2023-03-27T03:45:39.216Z,100.00
2023-03-27T03:50:40.551Z,100.00
2023-03-27T03:55:42.519Z,100.00
2023-03-27T04:00:44.526Z,100.00
2023-03-27T04:05:46.230Z,100.00
2023-03-27T04:10:48.068Z,100.00
2023-03-27T04:15:49.825Z,100.00
2023-03-27T04:20:51.232Z,100.00
2023-03-27T04:25:53.426Z,100.00
2023-03-27T04:30:54.963Z,100.00
2023-03-27T04:36:06.650Z,100.00
2023-03-27T04:41:08.895Z,100.00
2023-03-27T04:46:10.295Z,100.00
2023-03-27T04:51:11.590Z,100.00
2023-03-27T04:56:12.958Z,100.00
2023-03-27T05:01:14.591Z,100.00
2023-03-27T05:06:15.967Z,100.00
2023-03-27T05:11:17.289Z,100.00
2023-03-27T05:16:18.639Z,100.00
2023-03-27T05:21:20.619Z,100.00
2023-03-27T05:26:22.265Z,100.00
2023-03-27T05:31:23.736Z,100.00
2023-03-27T05:36:27.502Z,100.00
2023-03-27T05:41:28.841Z,100.00
2023-03-27T05:46:30.234Z,100.00
2023-03-27T05:51:32.677Z,100.00
2023-03-27T05:56:34.042Z,100.00
2023-03-27T06:01:36.093Z,100.00
2023-03-27T06:06:37.476Z,100.00
2023-03-27T06:11:39.212Z,100.00
2023-03-27T06:16:40.825Z,100.00
2023-03-27T06:21:42.173Z,100.00
2023-03-27T06:26:43.578Z,100.00
2023-03-27T06:31:44.948Z,99.12
2023-03-27T06:36:46.280Z,96.98
2023-03-27T06:41:47.790Z,92.96
2023-03-27T06:46:49.170Z,87.46
2023-03-27T06:51:50.896Z,80.97
2023-03-27T06:56:52.287Z,75.28
2023-03-27T07:01:53.709Z,73.26
2023-03-27T07:06:55.297Z,80.75
2023-03-27T07:11:56.738Z,81.04
2023-03-27T07:16:58.182Z,86.24
2023-03-27T07:21:59.683Z,91.84
2023-03-27T07:27:01.209Z,91.88
2023-03-27T07:32:07.850Z,91.55
2023-03-27T07:37:11.283Z,93.16
2023-03-27T07:42:12.679Z,93.82
2023-03-27T07:47:14.687Z,97.16
2023-03-27T07:52:16.573Z,100.00
2023-03-27T07:57:18.185Z,100.00
2023-03-27T08:02:19.593Z,100.00
2023-03-27T08:07:22.580Z,100.00
2023-03-27T08:12:24.263Z,99.20
2023-03-27T08:17:27.500Z,92.56
2023-03-27T08:22:28.982Z,88.90
2023-03-27T08:27:32.033Z,86.38
2023-03-27T08:32:33.775Z,81.44
2023-03-27T08:37:35.624Z,78.03
2023-03-27T08:42:40.258Z,82.13
2023-03-27T08:47:45.890Z,80.58
2023-03-27T08:52:48.297Z,60.59
2023-03-27T08:57:51.126Z,68.68
2023-03-27T09:02:55.933Z,69.86
2023-03-27T09:08:05.182Z,73.33
2023-03-27T09:13:12.130Z,78.38
2023-03-27T09:18:13.560Z,81.22
2023-03-27T09:23:22.114Z,70.93
2023-03-27T09:29:02.956Z,71.03
2023-03-27T09:34:05.372Z,74.29
2023-03-27T09:39:08.247Z,75.04
2023-03-27T09:44:15.604Z,73.10
2023-03-27T09:49:19.930Z,72.00
2023-03-27T09:54:22.438Z,65.00
2023-03-27T09:59:26.042Z,58.87
2023-03-27T10:04:29.221Z,59.25
2023-03-27T10:09:38.334Z,63.70
2023-03-27T10:14:39.643Z,84.00
2023-03-27T10:19:42.117Z,88.58
2023-03-27T10:24:46.198Z,86.17
2023-03-27T10:29:47.619Z,82.91
2023-03-27T10:34:57.371Z,77.04
2023-03-27T10:40:03.619Z,63.44
2023-03-27T10:45:06.277Z,56.94
2023-03-27T10:50:13.106Z,65.24
2023-03-27T10:55:17.311Z,65.14
2023-03-27T11:00:32.512Z,64.15
2023-03-27T11:05:39.389Z,65.99
2023-03-27T11:10:42.748Z,69.63
2023-03-27T11:16:03.825Z,59.85
2023-03-27T11:21:12.620Z,53.48
2023-03-27T11:26:17.967Z,47.29
2023-03-27T11:31:27.856Z,44.96
2023-03-27T11:36:34.793Z,41.19
2023-03-27T11:41:36.201Z,46.12
2023-03-27T11:46:50.313Z,47.35
2023-03-27T11:52:19.418Z,49.61
2023-03-27T11:57:25.768Z,47.66
2023-03-27T12:02:42.252Z,42.93
2023-03-27T12:07:52.587Z,41.26
2023-03-27T12:13:12.852Z,43.47
2023-03-27T12:18:17.221Z,44.51
2023-03-27T12:23:18.533Z,41.94
2023-03-27T12:28:22.524Z,41.28
2023-03-27T12:33:30.660Z,54.27
2023-03-27T12:38:42.731Z,57.88
2023-03-27T12:43:45.301Z,51.64
2023-03-27T12:49:01.805Z,48.33
2023-03-27T12:54:21.567Z,47.39
2023-03-27T12:59:24.038Z,48.47
2023-03-27T13:04:43.665Z,53.91
2023-03-27T13:09:48.060Z,55.57
2023-03-27T13:15:00.596Z,68.77
2023-03-27T13:20:16.707Z,85.89
2023-03-27T13:25:31.892Z,92.98
2023-03-27T13:30:40.284Z,95.42
2023-03-27T13:36:00.055Z,98.00
2023-03-27T13:41:24.788Z,100.00
2023-03-27T13:46:29.206Z,99.05
2023-03-27T13:51:50.206Z,95.04
2023-03-27T13:57:20.963Z,92.22
2023-03-27T14:02:41.307Z,88.42
2023-03-27T14:08:00.869Z,92.01
2023-03-27T14:13:24.821Z,94.04
2023-03-27T14:18:41.491Z,88.46
2023-03-27T14:23:45.897Z,92.79
2023-03-27T14:28:51.870Z,84.72
2023-03-27T14:34:04.613Z,86.04
2023-03-27T14:39:14.161Z,87.28
2023-03-27T14:44:17.823Z,95.69
2023-03-27T14:49:24.527Z,100.00
2023-03-27T14:54:27.264Z,100.00
2023-03-27T14:59:34.651Z,100.00
2023-03-27T15:04:39.710Z,98.13
2023-03-27T15:09:41.884Z,93.30
2023-03-27T15:14:43.380Z,87.97
2023-03-27T15:19:45.384Z,89.04
2023-03-27T15:24:57.710Z,88.31
2023-03-27T15:30:04.718Z,89.53
2023-03-27T15:35:06.840Z,92.12
2023-03-27T15:40:13.507Z,91.09
2023-03-27T15:45:16.755Z,87.36
2023-03-27T15:50:23.936Z,81.29
2023-03-27T15:55:39.451Z,77.01
2023-03-27T16:00:45.069Z,79.69
2023-03-27T16:05:47.144Z,84.24
2023-03-27T16:10:48.686Z,84.11
2023-03-27T16:15:56.586Z,86.71
2023-03-27T16:21:05.631Z,84.16
2023-03-27T16:26:08.708Z,84.08
2023-03-27T16:31:11.696Z,88.38
2023-03-27T16:36:14.214Z,88.21
2023-03-27T16:41:16.611Z,87.16
2023-03-27T16:46:21.964Z,86.70
2023-03-27T16:51:24.858Z,84.95
2023-03-27T16:56:26.184Z,89.90
2023-03-27T17:01:27.570Z,100.00
2023-03-27T17:06:28.930Z,100.00
2023-03-27T17:11:30.575Z,100.00
2023-03-27T17:16:32.166Z,100.00
2023-03-27T17:21:33.608Z,100.00
2023-03-27T17:26:36.213Z,100.00
2023-03-27T17:31:37.958Z,100.00
2023-03-27T17:36:47.267Z,100.00
2023-03-27T17:41:53.784Z,100.00
2023-03-27T17:46:55.168Z,100.00
2023-03-27T17:51:56.777Z,100.00
2023-03-27T17:56:58.132Z,100.00
2023-03-27T18:01:59.789Z,100.00
2023-03-27T18:07:01.173Z,100.00
2023-03-27T18:12:02.532Z,100.00
2023-03-27T18:17:03.958Z,100.00
2023-03-27T18:22:05.271Z,100.00
2023-03-27T18:27:06.643Z,100.00
2023-03-27T18:32:08.032Z,100.00
2023-03-27T18:37:09.365Z,100.00
2023-03-27T18:42:11.273Z,100.00
2023-03-27T18:47:12.631Z,100.00
2023-03-27T18:52:14.781Z,100.00
2023-03-27T18:57:19.978Z,100.00
2023-03-27T19:02:22.042Z,100.00
2023-03-27T19:07:23.589Z,100.00
2023-03-27T19:12:25.023Z,100.00
2023-03-27T19:17:26.388Z,100.00
2023-03-27T19:22:27.714Z,100.00
2023-03-27T19:27:38.924Z,100.00
2023-03-27T19:32:41.180Z,100.00
2023-03-27T19:37:42.701Z,100.00
2023-03-27T19:42:44.295Z,100.00
2023-03-27T19:47:45.741Z,100.00
2023-03-27T19:52:57.247Z,100.00
2023-03-27T19:58:07.088Z,100.00
2023-03-27T20:03:10.340Z,100.00
2023-03-27T20:08:11.999Z,100.00
2023-03-27T20:13:17.330Z,100.00
2023-03-27T20:18:19.903Z,100.00
2023-03-27T20:23:21.290Z,100.00
2023-03-27T20:28:22.625Z,100.00
2023-03-27T20:33:23.945Z,100.00
2023-03-27T20:38:28.725Z,100.00
2023-03-27T20:43:31.103Z,100.00
2023-03-27T20:48:40.359Z,100.00
2023-03-27T20:53:42.432Z,100.00
2023-03-27T20:58:44.385Z,100.00
2023-03-27T21:03:49.715Z,100.00
2023-03-27T21:08:51.223Z,100.00
2023-03-27T21:13:52.627Z,100.00
2023-03-27T21:18:53.943Z,100.00
2023-03-27T21:23:55.369Z,100.00
2023-03-27T21:28:56.713Z,100.00
2023-03-27T21:33:58.060Z,100.00
2023-03-27T21:38:59.458Z,100.00
2023-03-27T21:44:00.779Z,100.00
2023-03-27T21:49:02.100Z,100.00
2023-03-27T21:54:03.486Z,100.00
2023-03-27T21:59:04.967Z,100.00
2023-03-27T22:04:06.453Z,100.00
2023-03-27T22:09:07.939Z,100.00
2023-03-27T22:14:09.255Z,100.00
2023-03-27T22:19:11.344Z,100.00
2023-03-27T22:24:12.818Z,100.00
2023-03-27T22:29:14.289Z,100.00
2023-03-27T22:34:15.698Z,100.00
2023-03-27T22:39:17.284Z,100.00
2023-03-27T22:44:18.971Z,100.00
2023-03-27T22:49:20.346Z,100.00
2023-03-27T22:54:21.710Z,100.00
2023-03-27T22:59:23.059Z,100.00
2023-03-27T23:04:24.634Z,100.00
2023-03-27T23:09:26.008Z,100.00
2023-03-27T23:14:27.375Z,100.00
2023-03-27T23:19:28.713Z,100.00
2023-03-27T23:24:30.036Z,100.00
2023-03-27T23:29:31.530Z,100.00
2023-03-27T23:34:32.836Z,100.00
2023-03-27T23:39:34.147Z,100.00
2023-03-27T23:44:35.594Z,100.00
2023-03-27T23:49:36.962Z,100.00
2023-03-27T23:54:38.318Z,100.00
2023-03-27T23:59:41.458Z,100.00
